sensor_id;sensor_type;location;lat;lon;timestamp;P1;durP1;ratioP1;P2;durP2;ratioP2
37647;SDS011;23490;53.656;10.076;2023-08-07T00:00:30;2.00;;;1.40;;
37647;SDS011;23490;53.656;10.076;2023-08-07T00:02:56;3.22;;;1.48;;
37647;SDS011;23490;53.656;10.076;2023-08-07T00:05:21;3.30;;;1.60;;
37647;SDS011;23490;53.656;10.076;2023-08-07T00:07:46;5.30;;;1.60;;
37647;SDS011;23490;53.656;10.076;2023-08-07T00:10:12;3.80;;;1.80;;
37647;SDS011;23490;53.656;10.076;2023-08-07T00:12:38;3.55;;;2.15;;
37647;SDS011;23490;53.656;10.076;2023-08-07T00:15:03;5.30;;;1.40;;
37647;SDS011;23490;53.656;10.076;2023-08-07T00:17:29;3.63;;;1.60;;
37647;SDS011;23490;53.656;10.076;2023-08-07T00:19:55;6.22;;;1.30;;
37647;SDS011;23490;53.656;10.076;2023-08-07T00:22:20;4.10;;;1.70;;
37647;SDS011;23490;53.656;10.076;2023-08-07T00:24:45;3.63;;;1.50;;
37647;SDS011;23490;53.656;10.076;2023-08-07T00:27:11;4.13;;;1.63;;
37647;SDS011;23490;53.656;10.076;2023-08-07T00:29:37;5.75;;;1.35;;
37647;SDS011;23490;53.656;10.076;2023-08-07T00:32:03;4.97;;;1.50;;
37647;SDS011;23490;53.656;10.076;2023-08-07T00:34:29;3.83;;;1.15;;
37647;SDS011;23490;53.656;10.076;2023-08-07T00:36:54;2.17;;;1.10;;
37647;SDS011;23490;53.656;10.076;2023-08-07T00:39:20;3.00;;;1.30;;
37647;SDS011;23490;53.656;10.076;2023-08-07T00:41:45;2.70;;;1.38;;
37647;SDS011;23490;53.656;10.076;2023-08-07T00:44:10;5.13;;;1.90;;
37647;SDS011;23490;53.656;10.076;2023-08-07T00:46:36;3.70;;;1.45;;
37647;SDS011;23490;53.656;10.076;2023-08-07T00:49:02;2.90;;;1.25;;
37647;SDS011;23490;53.656;10.076;2023-08-07T00:51:29;4.22;;;1.10;;
37647;SDS011;23490;53.656;10.076;2023-08-07T00:53:54;2.90;;;1.35;;
37647;SDS011;23490;53.656;10.076;2023-08-07T00:56:20;2.65;;;1.25;;
37647;SDS011;23490;53.656;10.076;2023-08-07T00:58:45;3.65;;;1.38;;
37647;SDS011;23490;53.656;10.076;2023-08-07T01:01:11;3.33;;;1.30;;
37647;SDS011;23490;53.656;10.076;2023-08-07T01:03:36;2.33;;;1.20;;
37647;SDS011;23490;53.656;10.076;2023-08-07T01:06:03;3.70;;;1.13;;
37647;SDS011;23490;53.656;10.076;2023-08-07T01:08:28;5.07;;;1.58;;
37647;SDS011;23490;53.656;10.076;2023-08-07T01:13:28;3.28;;;1.35;;
37647;SDS011;23490;53.656;10.076;2023-08-07T01:16:00;4.32;;;1.38;;
37647;SDS011;23490;53.656;10.076;2023-08-07T01:18:32;4.07;;;1.42;;
37647;SDS011;23490;53.656;10.076;2023-08-07T01:20:59;2.47;;;1.30;;
37647;SDS011;23490;53.656;10.076;2023-08-07T01:23:28;4.30;;;1.38;;
37647;SDS011;23490;53.656;10.076;2023-08-07T01:25:53;4.40;;;1.33;;
37647;SDS011;23490;53.656;10.076;2023-08-07T01:28:21;4.32;;;1.65;;
37647;SDS011;23490;53.656;10.076;2023-08-07T01:30:54;2.60;;;1.38;;
37647;SDS011;23490;53.656;10.076;2023-08-07T01:33:29;3.95;;;1.50;;
37647;SDS011;23490;53.656;10.076;2023-08-07T01:36:01;4.57;;;1.77;;
37647;SDS011;23490;53.656;10.076;2023-08-07T01:38:28;2.85;;;1.48;;
37647;SDS011;23490;53.656;10.076;2023-08-07T01:40:54;3.88;;;1.50;;
37647;SDS011;23490;53.656;10.076;2023-08-07T01:43:21;2.28;;;1.23;;
37647;SDS011;23490;53.656;10.076;2023-08-07T01:45:47;3.88;;;1.38;;
37647;SDS011;23490;53.656;10.076;2023-08-07T01:48:12;2.92;;;1.20;;
37647;SDS011;23490;53.656;10.076;2023-08-07T01:50:38;3.55;;;1.30;;
37647;SDS011;23490;53.656;10.076;2023-08-07T01:53:04;4.30;;;1.30;;
37647;SDS011;23490;53.656;10.076;2023-08-07T01:55:30;3.88;;;1.20;;
37647;SDS011;23490;53.656;10.076;2023-08-07T01:57:55;1.90;;;1.20;;
37647;SDS011;23490;53.656;10.076;2023-08-07T02:00:20;2.10;;;1.13;;
37647;SDS011;23490;53.656;10.076;2023-08-07T02:02:46;2.58;;;1.23;;
37647;SDS011;23490;53.656;10.076;2023-08-07T02:05:12;2.88;;;1.20;;
37647;SDS011;23490;53.656;10.076;2023-08-07T02:07:38;2.42;;;1.17;;
37647;SDS011;23490;53.656;10.076;2023-08-07T02:10:04;2.00;;;1.17;;
37647;SDS011;23490;53.656;10.076;2023-08-07T02:12:29;3.95;;;1.40;;
37647;SDS011;23490;53.656;10.076;2023-08-07T02:14:57;2.35;;;1.55;;
37647;SDS011;23490;53.656;10.076;2023-08-07T02:17:24;6.38;;;1.77;;
37647;SDS011;23490;53.656;10.076;2023-08-07T02:19:50;3.40;;;1.48;;
37647;SDS011;23490;53.656;10.076;2023-08-07T02:22:15;6.47;;;1.38;;
37647;SDS011;23490;53.656;10.076;2023-08-07T02:24:41;2.22;;;1.00;;
37647;SDS011;23490;53.656;10.076;2023-08-07T02:27:06;2.17;;;1.20;;
37647;SDS011;23490;53.656;10.076;2023-08-07T02:29:32;3.85;;;1.20;;
37647;SDS011;23490;53.656;10.076;2023-08-07T02:31:59;2.45;;;1.60;;
37647;SDS011;23490;53.656;10.076;2023-08-07T02:34:26;3.90;;;1.50;;
37647;SDS011;23490;53.656;10.076;2023-08-07T02:36:52;4.80;;;1.20;;
37647;SDS011;23490;53.656;10.076;2023-08-07T02:39:20;4.25;;;1.52;;
37647;SDS011;23490;53.656;10.076;2023-08-07T02:41:46;2.15;;;0.98;;
37647;SDS011;23490;53.656;10.076;2023-08-07T02:44:11;2.67;;;1.30;;
37647;SDS011;23490;53.656;10.076;2023-08-07T02:46:36;2.08;;;1.13;;
37647;SDS011;23490;53.656;10.076;2023-08-07T02:49:02;2.72;;;1.20;;
37647;SDS011;23490;53.656;10.076;2023-08-07T02:51:27;3.58;;;1.30;;
37647;SDS011;23490;53.656;10.076;2023-08-07T02:53:52;3.10;;;1.10;;
37647;SDS011;23490;53.656;10.076;2023-08-07T02:56:18;3.15;;;1.40;;
37647;SDS011;23490;53.656;10.076;2023-08-07T02:58:43;2.00;;;0.98;;
37647;SDS011;23490;53.656;10.076;2023-08-07T03:01:08;4.35;;;1.55;;
37647;SDS011;23490;53.656;10.076;2023-08-07T03:03:34;2.38;;;1.42;;
37647;SDS011;23490;53.656;10.076;2023-08-07T03:05:59;3.97;;;1.42;;
37647;SDS011;23490;53.656;10.076;2023-08-07T03:08:24;3.35;;;1.20;;
37647;SDS011;23490;53.656;10.076;2023-08-07T03:10:53;3.78;;;1.40;;
37647;SDS011;23490;53.656;10.076;2023-08-07T03:13:26;4.07;;;1.30;;
37647;SDS011;23490;53.656;10.076;2023-08-07T03:16:01;3.65;;;1.67;;
37647;SDS011;23490;53.656;10.076;2023-08-07T03:18:30;2.35;;;1.00;;
37647;SDS011;23490;53.656;10.076;2023-08-07T03:20:56;2.42;;;1.20;;
37647;SDS011;23490;53.656;10.076;2023-08-07T03:23:22;2.05;;;1.20;;
37647;SDS011;23490;53.656;10.076;2023-08-07T03:25:48;2.88;;;1.27;;
37647;SDS011;23490;53.656;10.076;2023-08-07T03:28:14;4.57;;;1.40;;
37647;SDS011;23490;53.656;10.076;2023-08-07T03:30:39;1.80;;;1.10;;
37647;SDS011;23490;53.656;10.076;2023-08-07T03:33:04;2.85;;;1.30;;
37647;SDS011;23490;53.656;10.076;2023-08-07T03:35:30;4.30;;;0.90;;
37647;SDS011;23490;53.656;10.076;2023-08-07T03:37:55;4.18;;;1.33;;
37647;SDS011;23490;53.656;10.076;2023-08-07T03:40:20;3.17;;;1.48;;
37647;SDS011;23490;53.656;10.076;2023-08-07T03:42:46;5.50;;;1.60;;
37647;SDS011;23490;53.656;10.076;2023-08-07T03:45:11;2.03;;;1.23;;
37647;SDS011;23490;53.656;10.076;2023-08-07T03:47:36;3.67;;;1.20;;
37647;SDS011;23490;53.656;10.076;2023-08-07T03:50:02;2.97;;;1.90;;
37647;SDS011;23490;53.656;10.076;2023-08-07T03:52:27;4.05;;;1.30;;
37647;SDS011;23490;53.656;10.076;2023-08-07T03:54:52;2.90;;;1.48;;
37647;SDS011;23490;53.656;10.076;2023-08-07T03:57:18;4.13;;;1.40;;
37647;SDS011;23490;53.656;10.076;2023-08-07T03:59:43;2.33;;;1.10;;
37647;SDS011;23490;53.656;10.076;2023-08-07T04:02:09;2.78;;;1.58;;
37647;SDS011;23490;53.656;10.076;2023-08-07T04:04:34;2.58;;;1.20;;
37647;SDS011;23490;53.656;10.076;2023-08-07T04:07:00;4.68;;;1.50;;
37647;SDS011;23490;53.656;10.076;2023-08-07T04:09:25;2.38;;;1.40;;
37647;SDS011;23490;53.656;10.076;2023-08-07T04:11:51;3.15;;;1.73;;
37647;SDS011;23490;53.656;10.076;2023-08-07T04:14:16;2.88;;;1.35;;
37647;SDS011;23490;53.656;10.076;2023-08-07T04:16:41;2.88;;;1.65;;
37647;SDS011;23490;53.656;10.076;2023-08-07T04:19:06;3.45;;;1.35;;
37647;SDS011;23490;53.656;10.076;2023-08-07T04:21:32;2.53;;;1.13;;
37647;SDS011;23490;53.656;10.076;2023-08-07T04:23:58;3.50;;;1.55;;
37647;SDS011;23490;53.656;10.076;2023-08-07T04:26:25;3.75;;;1.50;;
37647;SDS011;23490;53.656;10.076;2023-08-07T04:28:51;3.85;;;1.40;;
37647;SDS011;23490;53.656;10.076;2023-08-07T04:31:16;3.63;;;1.38;;
37647;SDS011;23490;53.656;10.076;2023-08-07T04:33:41;4.45;;;1.35;;
37647;SDS011;23490;53.656;10.076;2023-08-07T04:36:06;6.47;;;1.65;;
37647;SDS011;23490;53.656;10.076;2023-08-07T04:38:32;2.88;;;1.23;;
37647;SDS011;23490;53.656;10.076;2023-08-07T04:40:57;4.80;;;1.60;;
37647;SDS011;23490;53.656;10.076;2023-08-07T04:43:23;5.97;;;1.70;;
37647;SDS011;23490;53.656;10.076;2023-08-07T04:45:48;6.28;;;1.88;;
37647;SDS011;23490;53.656;10.076;2023-08-07T04:48:14;3.85;;;1.90;;
37647;SDS011;23490;53.656;10.076;2023-08-07T04:50:39;5.90;;;1.90;;
37647;SDS011;23490;53.656;10.076;2023-08-07T04:53:05;2.75;;;1.42;;
37647;SDS011;23490;53.656;10.076;2023-08-07T04:55:31;4.60;;;1.80;;
37647;SDS011;23490;53.656;10.076;2023-08-07T04:57:57;2.67;;;1.30;;
37647;SDS011;23490;53.656;10.076;2023-08-07T05:00:23;5.32;;;1.90;;
37647;SDS011;23490;53.656;10.076;2023-08-07T05:02:49;4.53;;;1.40;;
37647;SDS011;23490;53.656;10.076;2023-08-07T05:05:15;4.78;;;1.52;;
37647;SDS011;23490;53.656;10.076;2023-08-07T05:07:41;4.55;;;2.05;;
37647;SDS011;23490;53.656;10.076;2023-08-07T05:10:07;4.65;;;1.38;;
37647;SDS011;23490;53.656;10.076;2023-08-07T05:12:33;4.93;;;2.10;;
37647;SDS011;23490;53.656;10.076;2023-08-07T05:14:59;6.50;;;2.30;;
37647;SDS011;23490;53.656;10.076;2023-08-07T05:17:24;5.10;;;1.35;;
37647;SDS011;23490;53.656;10.076;2023-08-07T05:19:49;3.53;;;1.40;;
37647;SDS011;23490;53.656;10.076;2023-08-07T05:22:16;4.53;;;1.77;;
37647;SDS011;23490;53.656;10.076;2023-08-07T05:24:41;7.60;;;1.85;;
37647;SDS011;23490;53.656;10.076;2023-08-07T05:27:10;4.82;;;1.38;;
37647;SDS011;23490;53.656;10.076;2023-08-07T05:29:35;3.92;;;1.40;;
37647;SDS011;23490;53.656;10.076;2023-08-07T05:32:10;7.25;;;1.80;;
37647;SDS011;23490;53.656;10.076;2023-08-07T05:34:36;7.40;;;2.15;;
37647;SDS011;23490;53.656;10.076;2023-08-07T05:37:01;2.40;;;1.40;;
37647;SDS011;23490;53.656;10.076;2023-08-07T05:39:27;9.65;;;1.15;;
37647;SDS011;23490;53.656;10.076;2023-08-07T05:41:52;4.45;;;1.40;;
37647;SDS011;23490;53.656;10.076;2023-08-07T05:44:19;3.40;;;1.38;;
37647;SDS011;23490;53.656;10.076;2023-08-07T05:46:45;4.68;;;1.75;;
37647;SDS011;23490;53.656;10.076;2023-08-07T05:49:10;7.22;;;1.92;;
37647;SDS011;23490;53.656;10.076;2023-08-07T05:51:35;5.30;;;1.95;;
37647;SDS011;23490;53.656;10.076;2023-08-07T05:54:01;4.97;;;1.70;;
37647;SDS011;23490;53.656;10.076;2023-08-07T05:56:26;4.50;;;1.50;;
37647;SDS011;23490;53.656;10.076;2023-08-07T05:58:51;7.40;;;1.85;;
37647;SDS011;23490;53.656;10.076;2023-08-07T06:01:17;3.90;;;1.30;;
37647;SDS011;23490;53.656;10.076;2023-08-07T06:03:42;8.35;;;1.83;;
37647;SDS011;23490;53.656;10.076;2023-08-07T06:06:08;6.15;;;2.15;;
37647;SDS011;23490;53.656;10.076;2023-08-07T06:08:33;4.53;;;1.50;;
37647;SDS011;23490;53.656;10.076;2023-08-07T06:10:59;5.03;;;1.40;;
37647;SDS011;23490;53.656;10.076;2023-08-07T06:13:28;4.25;;;1.52;;
37647;SDS011;23490;53.656;10.076;2023-08-07T06:15:54;5.32;;;1.52;;
37647;SDS011;23490;53.656;10.076;2023-08-07T06:18:20;9.18;;;1.92;;
37647;SDS011;23490;53.656;10.076;2023-08-07T06:20:45;11.88;;;2.67;;
37647;SDS011;23490;53.656;10.076;2023-08-07T06:23:12;7.15;;;1.80;;
37647;SDS011;23490;53.656;10.076;2023-08-07T06:25:39;8.07;;;1.75;;
37647;SDS011;23490;53.656;10.076;2023-08-07T06:28:04;8.32;;;2.63;;
37647;SDS011;23490;53.656;10.076;2023-08-07T06:30:32;7.25;;;1.73;;
37647;SDS011;23490;53.656;10.076;2023-08-07T06:32:58;7.80;;;2.40;;
37647;SDS011;23490;53.656;10.076;2023-08-07T06:35:23;10.32;;;2.00;;
37647;SDS011;23490;53.656;10.076;2023-08-07T06:37:48;9.15;;;2.55;;
37647;SDS011;23490;53.656;10.076;2023-08-07T06:40:14;5.82;;;2.10;;
37647;SDS011;23490;53.656;10.076;2023-08-07T06:42:39;6.30;;;1.55;;
37647;SDS011;23490;53.656;10.076;2023-08-07T06:45:05;9.95;;;1.80;;
37647;SDS011;23490;53.656;10.076;2023-08-07T06:47:31;5.80;;;2.33;;
37647;SDS011;23490;53.656;10.076;2023-08-07T06:49:56;11.57;;;2.35;;
37647;SDS011;23490;53.656;10.076;2023-08-07T06:52:22;8.82;;;2.92;;
37647;SDS011;23490;53.656;10.076;2023-08-07T06:54:47;9.00;;;1.85;;
37647;SDS011;23490;53.656;10.076;2023-08-07T06:57:13;8.38;;;2.30;;
37647;SDS011;23490;53.656;10.076;2023-08-07T06:59:39;8.90;;;2.33;;
37647;SDS011;23490;53.656;10.076;2023-08-07T07:02:04;13.13;;;2.78;;
37647;SDS011;23490;53.656;10.076;2023-08-07T07:04:30;8.15;;;2.75;;
37647;SDS011;23490;53.656;10.076;2023-08-07T07:06:55;7.25;;;2.30;;
37647;SDS011;23490;53.656;10.076;2023-08-07T07:09:21;7.38;;;2.17;;
37647;SDS011;23490;53.656;10.076;2023-08-07T07:11:46;7.07;;;2.28;;
37647;SDS011;23490;53.656;10.076;2023-08-07T07:14:12;8.45;;;2.22;;
37647;SDS011;23490;53.656;10.076;2023-08-07T07:16:37;7.38;;;2.47;;
37647;SDS011;23490;53.656;10.076;2023-08-07T07:19:03;11.15;;;2.75;;
37647;SDS011;23490;53.656;10.076;2023-08-07T07:21:28;7.22;;;2.20;;
37647;SDS011;23490;53.656;10.076;2023-08-07T07:23:54;9.60;;;2.15;;
37647;SDS011;23490;53.656;10.076;2023-08-07T07:26:19;6.60;;;1.92;;
37647;SDS011;23490;53.656;10.076;2023-08-07T07:28:44;16.83;;;2.83;;
37647;SDS011;23490;53.656;10.076;2023-08-07T07:31:10;7.47;;;2.15;;
37647;SDS011;23490;53.656;10.076;2023-08-07T07:33:36;12.20;;;2.00;;
37647;SDS011;23490;53.656;10.076;2023-08-07T07:36:04;14.80;;;3.25;;
37647;SDS011;23490;53.656;10.076;2023-08-07T07:38:30;7.70;;;2.03;;
37647;SDS011;23490;53.656;10.076;2023-08-07T07:40:55;11.85;;;2.53;;
37647;SDS011;23490;53.656;10.076;2023-08-07T07:43:24;15.85;;;2.67;;
37647;SDS011;23490;53.656;10.076;2023-08-07T07:45:50;5.15;;;2.30;;
37647;SDS011;23490;53.656;10.076;2023-08-07T07:48:15;14.15;;;2.45;;
37647;SDS011;23490;53.656;10.076;2023-08-07T07:50:41;7.25;;;2.75;;
37647;SDS011;23490;53.656;10.076;2023-08-07T07:53:06;13.15;;;2.75;;
37647;SDS011;23490;53.656;10.076;2023-08-07T07:55:31;6.28;;;2.20;;
37647;SDS011;23490;53.656;10.076;2023-08-07T07:57:59;5.68;;;2.13;;
37647;SDS011;23490;53.656;10.076;2023-08-07T08:00:24;8.27;;;2.20;;
37647;SDS011;23490;53.656;10.076;2023-08-07T08:02:52;6.85;;;2.25;;
37647;SDS011;23490;53.656;10.076;2023-08-07T08:05:22;7.40;;;2.53;;
37647;SDS011;23490;53.656;10.076;2023-08-07T08:07:47;11.20;;;2.08;;
37647;SDS011;23490;53.656;10.076;2023-08-07T08:10:12;12.95;;;2.65;;
37647;SDS011;23490;53.656;10.076;2023-08-07T08:12:38;9.15;;;2.20;;
37647;SDS011;23490;53.656;10.076;2023-08-07T08:15:04;9.20;;;2.50;;
37647;SDS011;23490;53.656;10.076;2023-08-07T08:17:30;10.75;;;2.65;;
37647;SDS011;23490;53.656;10.076;2023-08-07T08:19:55;11.20;;;2.60;;
37647;SDS011;23490;53.656;10.076;2023-08-07T08:22:21;5.03;;;1.98;;
37647;SDS011;23490;53.656;10.076;2023-08-07T08:24:46;5.57;;;2.13;;
37647;SDS011;23490;53.656;10.076;2023-08-07T08:27:12;9.50;;;1.70;;
37647;SDS011;23490;53.656;10.076;2023-08-07T08:29:38;6.80;;;2.28;;
37647;SDS011;23490;53.656;10.076;2023-08-07T08:32:03;5.82;;;1.73;;
37647;SDS011;23490;53.656;10.076;2023-08-07T08:34:30;8.57;;;2.42;;
37647;SDS011;23490;53.656;10.076;2023-08-07T08:36:56;10.90;;;2.78;;
37647;SDS011;23490;53.656;10.076;2023-08-07T08:39:22;12.00;;;2.67;;
37647;SDS011;23490;53.656;10.076;2023-08-07T08:41:50;13.20;;;3.35;;
37647;SDS011;23490;53.656;10.076;2023-08-07T08:44:17;10.95;;;2.90;;
37647;SDS011;23490;53.656;10.076;2023-08-07T08:46:45;11.85;;;2.42;;
37647;SDS011;23490;53.656;10.076;2023-08-07T08:49:13;9.45;;;2.20;;
37647;SDS011;23490;53.656;10.076;2023-08-07T08:51:44;7.15;;;2.13;;
37647;SDS011;23490;53.656;10.076;2023-08-07T08:54:10;11.40;;;2.75;;
37647;SDS011;23490;53.656;10.076;2023-08-07T08:56:36;10.27;;;2.53;;
37647;SDS011;23490;53.656;10.076;2023-08-07T08:59:02;7.75;;;2.50;;
37647;SDS011;23490;53.656;10.076;2023-08-07T09:01:27;6.80;;;2.00;;
37647;SDS011;23490;53.656;10.076;2023-08-07T09:03:54;7.47;;;2.22;;
37647;SDS011;23490;53.656;10.076;2023-08-07T09:06:20;7.88;;;2.38;;
37647;SDS011;23490;53.656;10.076;2023-08-07T09:08:51;11.40;;;2.53;;
37647;SDS011;23490;53.656;10.076;2023-08-07T09:11:20;5.60;;;2.10;;
37647;SDS011;23490;53.656;10.076;2023-08-07T09:13:51;8.68;;;2.45;;
37647;SDS011;23490;53.656;10.076;2023-08-07T09:16:19;9.48;;;2.90;;
37647;SDS011;23490;53.656;10.076;2023-08-07T09:18:44;9.05;;;2.35;;
37647;SDS011;23490;53.656;10.076;2023-08-07T09:21:13;8.75;;;2.45;;
37647;SDS011;23490;53.656;10.076;2023-08-07T09:23:41;7.30;;;1.85;;
37647;SDS011;23490;53.656;10.076;2023-08-07T09:26:07;7.60;;;2.00;;
37647;SDS011;23490;53.656;10.076;2023-08-07T09:28:33;9.18;;;1.90;;
37647;SDS011;23490;53.656;10.076;2023-08-07T09:31:02;9.88;;;2.47;;
37647;SDS011;23490;53.656;10.076;2023-08-07T09:33:31;6.43;;;1.75;;
37647;SDS011;23490;53.656;10.076;2023-08-07T09:36:00;6.03;;;1.80;;
37647;SDS011;23490;53.656;10.076;2023-08-07T09:38:29;6.30;;;2.10;;
37647;SDS011;23490;53.656;10.076;2023-08-07T09:40:58;8.05;;;2.25;;
37647;SDS011;23490;53.656;10.076;2023-08-07T09:43:24;6.22;;;2.30;;
37647;SDS011;23490;53.656;10.076;2023-08-07T09:45:50;7.82;;;2.20;;
37647;SDS011;23490;53.656;10.076;2023-08-07T09:48:22;6.03;;;1.88;;
37647;SDS011;23490;53.656;10.076;2023-08-07T09:50:52;11.13;;;2.33;;
37647;SDS011;23490;53.656;10.076;2023-08-07T09:53:24;8.63;;;2.60;;
37647;SDS011;23490;53.656;10.076;2023-08-07T09:55:54;8.00;;;2.03;;
37647;SDS011;23490;53.656;10.076;2023-08-07T09:58:20;7.78;;;1.98;;
37647;SDS011;23490;53.656;10.076;2023-08-07T10:00:48;6.50;;;1.65;;
37647;SDS011;23490;53.656;10.076;2023-08-07T10:03:21;9.20;;;1.90;;
37647;SDS011;23490;53.656;10.076;2023-08-07T10:05:48;7.47;;;2.15;;
37647;SDS011;23490;53.656;10.076;2023-08-07T10:08:15;10.82;;;2.53;;
37647;SDS011;23490;53.656;10.076;2023-08-07T10:10:41;9.35;;;2.53;;
37647;SDS011;23490;53.656;10.076;2023-08-07T10:13:07;4.45;;;1.60;;
37647;SDS011;23490;53.656;10.076;2023-08-07T10:15:33;11.45;;;2.25;;
37647;SDS011;23490;53.656;10.076;2023-08-07T10:18:02;6.63;;;2.17;;
37647;SDS011;23490;53.656;10.076;2023-08-07T10:20:28;5.78;;;1.45;;
37647;SDS011;23490;53.656;10.076;2023-08-07T10:22:57;7.45;;;2.00;;
37647;SDS011;23490;53.656;10.076;2023-08-07T10:25:26;7.22;;;1.80;;
37647;SDS011;23490;53.656;10.076;2023-08-07T10:27:53;5.20;;;1.55;;
37647;SDS011;23490;53.656;10.076;2023-08-07T10:30:28;8.38;;;2.25;;
37647;SDS011;23490;53.656;10.076;2023-08-07T10:32:56;8.07;;;2.08;;
37647;SDS011;23490;53.656;10.076;2023-08-07T10:35:29;5.45;;;2.08;;
37647;SDS011;23490;53.656;10.076;2023-08-07T10:37:57;6.57;;;1.83;;
37647;SDS011;23490;53.656;10.076;2023-08-07T10:40:32;7.60;;;1.80;;
37647;SDS011;23490;53.656;10.076;2023-08-07T10:42:58;11.23;;;2.38;;
37647;SDS011;23490;53.656;10.076;2023-08-07T10:45:25;9.35;;;2.30;;
37647;SDS011;23490;53.656;10.076;2023-08-07T10:50:28;6.47;;;1.90;;
37647;SDS011;23490;53.656;10.076;2023-08-07T10:52:54;4.32;;;1.90;;
37647;SDS011;23490;53.656;10.076;2023-08-07T10:55:20;5.10;;;2.03;;
37647;SDS011;23490;53.656;10.076;2023-08-07T10:57:46;8.05;;;1.88;;
37647;SDS011;23490;53.656;10.076;2023-08-07T11:00:12;10.48;;;2.53;;
37647;SDS011;23490;53.656;10.076;2023-08-07T11:02:37;7.70;;;2.00;;
37647;SDS011;23490;53.656;10.076;2023-08-07T11:05:06;11.60;;;2.08;;
37647;SDS011;23490;53.656;10.076;2023-08-07T11:07:32;6.00;;;1.80;;
37647;SDS011;23490;53.656;10.076;2023-08-07T11:09:58;5.13;;;1.73;;
37647;SDS011;23490;53.656;10.076;2023-08-07T11:12:24;6.30;;;1.63;;
37647;SDS011;23490;53.656;10.076;2023-08-07T11:14:51;4.95;;;1.83;;
37647;SDS011;23490;53.656;10.076;2023-08-07T11:17:18;7.55;;;2.20;;
37647;SDS011;23490;53.656;10.076;2023-08-07T11:19:43;6.78;;;2.25;;
37647;SDS011;23490;53.656;10.076;2023-08-07T11:22:11;4.68;;;1.55;;
37647;SDS011;23490;53.656;10.076;2023-08-07T11:24:37;8.07;;;1.65;;
37647;SDS011;23490;53.656;10.076;2023-08-07T11:27:03;7.45;;;1.95;;
37647;SDS011;23490;53.656;10.076;2023-08-07T11:29:28;7.15;;;1.50;;
37647;SDS011;23490;53.656;10.076;2023-08-07T11:31:55;9.02;;;1.20;;
37647;SDS011;23490;53.656;10.076;2023-08-07T11:34:21;4.97;;;1.17;;
37647;SDS011;23490;53.656;10.076;2023-08-07T11:36:47;5.90;;;1.33;;
37647;SDS011;23490;53.656;10.076;2023-08-07T11:39:13;4.57;;;1.35;;
37647;SDS011;23490;53.656;10.076;2023-08-07T11:41:38;4.22;;;1.90;;
37647;SDS011;23490;53.656;10.076;2023-08-07T11:44:07;7.57;;;1.40;;
37647;SDS011;23490;53.656;10.076;2023-08-07T11:46:33;4.75;;;1.77;;
37647;SDS011;23490;53.656;10.076;2023-08-07T11:48:58;6.75;;;1.67;;
37647;SDS011;23490;53.656;10.076;2023-08-07T11:51:24;4.28;;;1.48;;
37647;SDS011;23490;53.656;10.076;2023-08-07T11:53:49;4.60;;;1.40;;
37647;SDS011;23490;53.656;10.076;2023-08-07T11:56:15;4.93;;;1.00;;
37647;SDS011;23490;53.656;10.076;2023-08-07T11:58:44;3.53;;;1.25;;
37647;SDS011;23490;53.656;10.076;2023-08-07T12:03:41;6.43;;;1.77;;
37647;SDS011;23490;53.656;10.076;2023-08-07T12:06:08;4.78;;;1.33;;
37647;SDS011;23490;53.656;10.076;2023-08-07T12:08:37;4.10;;;1.23;;
37647;SDS011;23490;53.656;10.076;2023-08-07T12:11:04;6.10;;;1.67;;
37647;SDS011;23490;53.656;10.076;2023-08-07T12:13:36;7.40;;;1.70;;
37647;SDS011;23490;53.656;10.076;2023-08-07T12:16:03;6.70;;;2.40;;
37647;SDS011;23490;53.656;10.076;2023-08-07T12:18:29;6.68;;;1.17;;
37647;SDS011;23490;53.656;10.076;2023-08-07T12:20:56;3.63;;;0.90;;
37647;SDS011;23490;53.656;10.076;2023-08-07T12:23:26;4.70;;;1.17;;
37647;SDS011;23490;53.656;10.076;2023-08-07T12:25:52;3.40;;;1.10;;
37647;SDS011;23490;53.656;10.076;2023-08-07T12:28:18;4.88;;;2.13;;
37647;SDS011;23490;53.656;10.076;2023-08-07T12:30:44;5.25;;;1.42;;
37647;SDS011;23490;53.656;10.076;2023-08-07T12:33:11;4.57;;;1.67;;
37647;SDS011;23490;53.656;10.076;2023-08-07T12:35:37;4.50;;;1.42;;
37647;SDS011;23490;53.656;10.076;2023-08-07T12:38:02;5.60;;;1.60;;
37647;SDS011;23490;53.656;10.076;2023-08-07T12:40:28;6.68;;;1.45;;
37647;SDS011;23490;53.656;10.076;2023-08-07T12:43:02;4.90;;;1.38;;
37647;SDS011;23490;53.656;10.076;2023-08-07T12:45:28;8.93;;;2.95;;
37647;SDS011;23490;53.656;10.076;2023-08-07T12:47:54;7.22;;;1.35;;
37647;SDS011;23490;53.656;10.076;2023-08-07T12:50:19;6.95;;;1.60;;
37647;SDS011;23490;53.656;10.076;2023-08-07T12:52:45;6.35;;;1.25;;
37647;SDS011;23490;53.656;10.076;2023-08-07T12:55:10;4.78;;;1.45;;
37647;SDS011;23490;53.656;10.076;2023-08-07T12:57:37;5.03;;;1.20;;
37647;SDS011;23490;53.656;10.076;2023-08-07T13:00:03;3.53;;;1.27;;
37647;SDS011;23490;53.656;10.076;2023-08-07T13:02:29;6.70;;;1.48;;
37647;SDS011;23490;53.656;10.076;2023-08-07T13:04:55;5.80;;;1.30;;
37647;SDS011;23490;53.656;10.076;2023-08-07T13:07:22;9.52;;;2.50;;
37647;SDS011;23490;53.656;10.076;2023-08-07T13:09:47;5.47;;;1.70;;
37647;SDS011;23490;53.656;10.076;2023-08-07T13:12:13;6.45;;;1.58;;
37647;SDS011;23490;53.656;10.076;2023-08-07T13:14:38;7.60;;;1.83;;
37647;SDS011;23490;53.656;10.076;2023-08-07T13:17:03;6.88;;;1.52;;
37647;SDS011;23490;53.656;10.076;2023-08-07T13:19:29;6.38;;;1.75;;
37647;SDS011;23490;53.656;10.076;2023-08-07T13:21:54;10.55;;;2.15;;
37647;SDS011;23490;53.656;10.076;2023-08-07T13:24:20;6.85;;;1.73;;
37647;SDS011;23490;53.656;10.076;2023-08-07T13:26:47;7.93;;;1.48;;
37647;SDS011;23490;53.656;10.076;2023-08-07T13:29:13;7.70;;;1.67;;
37647;SDS011;23490;53.656;10.076;2023-08-07T13:31:38;7.80;;;1.90;;
37647;SDS011;23490;53.656;10.076;2023-08-07T13:34:06;7.90;;;2.13;;
37647;SDS011;23490;53.656;10.076;2023-08-07T13:36:36;8.07;;;2.17;;
37647;SDS011;23490;53.656;10.076;2023-08-07T13:39:06;5.70;;;1.70;;
37647;SDS011;23490;53.656;10.076;2023-08-07T13:41:32;7.40;;;2.00;;
37647;SDS011;23490;53.656;10.076;2023-08-07T13:43:57;6.00;;;1.50;;
37647;SDS011;23490;53.656;10.076;2023-08-07T13:46:23;4.50;;;1.83;;
37647;SDS011;23490;53.656;10.076;2023-08-07T13:48:54;10.20;;;2.35;;
37647;SDS011;23490;53.656;10.076;2023-08-07T13:51:19;5.70;;;1.90;;
37647;SDS011;23490;53.656;10.076;2023-08-07T13:53:44;10.45;;;2.08;;
37647;SDS011;23490;53.656;10.076;2023-08-07T13:56:10;8.10;;;2.25;;
37647;SDS011;23490;53.656;10.076;2023-08-07T13:58:41;5.90;;;1.77;;
37647;SDS011;23490;53.656;10.076;2023-08-07T14:01:07;9.40;;;2.28;;
37647;SDS011;23490;53.656;10.076;2023-08-07T14:03:33;8.13;;;2.55;;
37647;SDS011;23490;53.656;10.076;2023-08-07T14:05:58;10.98;;;2.85;;
37647;SDS011;23490;53.656;10.076;2023-08-07T14:08:24;4.78;;;1.42;;
37647;SDS011;23490;53.656;10.076;2023-08-07T14:10:49;7.53;;;2.33;;
37647;SDS011;23490;53.656;10.076;2023-08-07T14:13:15;11.18;;;3.00;;
37647;SDS011;23490;53.656;10.076;2023-08-07T14:15:41;8.40;;;1.83;;
37647;SDS011;23490;53.656;10.076;2023-08-07T14:18:12;6.07;;;2.08;;
37647;SDS011;23490;53.656;10.076;2023-08-07T14:20:40;6.88;;;1.73;;
37647;SDS011;23490;53.656;10.076;2023-08-07T14:23:05;7.68;;;2.83;;
37647;SDS011;23490;53.656;10.076;2023-08-07T14:25:31;9.32;;;2.13;;
37647;SDS011;23490;53.656;10.076;2023-08-07T14:27:56;18.48;;;1.95;;
37647;SDS011;23490;53.656;10.076;2023-08-07T14:30:21;4.97;;;1.70;;
37647;SDS011;23490;53.656;10.076;2023-08-07T14:32:47;8.38;;;1.67;;
37647;SDS011;23490;53.656;10.076;2023-08-07T14:35:13;6.53;;;2.15;;